首页
METAR-TAF:

METAR-TAF

机场 :

雅蒲島國際機場

雅蒲島, 密克罗尼西亚群岛

纬度: 09-29N, 经度: 138-05E, 海拔: 28米

当前天气观测

该预报发布于54分钟前的07:51 UTC
风速5节,风向多变
温度 26°C
湿度 94%
气压 1012 hPa
能見度: 16.1公里
散云层高于1600英尺, 塔状积云.
多云层高于13000英尺
阴天层高于30000英尺
小阵雨

METAR: PTYA 170751Z VRB05KT 10SM -SHRA SCT016TCU BKN130 OVC300 26/25 A2987 RMK TCU ALQDS SLP117 T02590245

时间: 18:45 (08:45 UTC)

预报

该预报发布于2小时和50分钟前的05:55 UTC
预报有效从17日的 06点(UTC)到 18日的 06点(UTC)
风速11节,风向东北
能見度: 10公里
散云层高于1600英尺
散云层高于5000英尺
多云层高于10000英尺
附近有阵雨
短暂存在
从 17日的 06点(UTC)到 17日的 10点(UTC)
能見度: 8.0公里
散云层高于1400英尺
多云层高于3000英尺
阵雨

TAF: PTYA 170555Z 1706/1806 05011KT P6SM VCSH SCT016 SCT050 BKN100 TEMPO 1706/1710 5SM SHRA SCT014 BKN030

超过4000个机场的气象观测和天气预报(METAR&TAF报告)。

可查询的气象台以黄色和红色小点在地图上表示。

将鼠标移到小点上方,可查看气象台名称。

然后点击查看天气观测和预报。

如需切换地图:点击带黑十字的绿色按钮放大地图;点击带横线的绿色按钮缩小地图;或者点击绿色箭头查看邻近地区的地图。


METAR-TAF: